createdAt,value
2023-04-23T00:02:23.765Z,8.80
2023-04-23T00:04:54.279Z,8.30
2023-04-23T00:07:24.580Z,8.33
2023-04-23T00:09:54.194Z,9.33
2023-04-23T00:12:22.638Z,8.27
2023-04-23T00:14:50.967Z,9.23
2023-04-23T00:17:19.803Z,8.73
2023-04-23T00:19:48.374Z,9.20
2023-04-23T00:22:17.202Z,9.53
2023-04-23T00:24:46.491Z,9.30
2023-04-23T00:27:14.458Z,9.73
2023-04-23T00:29:43.436Z,9.40
2023-04-23T00:32:11.331Z,9.30
2023-04-23T00:34:39.567Z,9.53
2023-04-23T00:37:08.068Z,9.87
2023-04-23T00:39:37.705Z,10.03
2023-04-23T00:42:12.526Z,10.47
2023-04-23T00:44:41.781Z,9.80
2023-04-23T00:47:10.705Z,9.70
2023-04-23T00:49:39.344Z,10.17
2023-04-23T00:52:07.336Z,10.20
2023-04-23T00:54:35.326Z,10.70
2023-04-23T00:57:03.743Z,11.67
2023-04-23T00:59:32.987Z,12.13
2023-04-23T01:02:01.132Z,11.13
2023-04-23T01:04:29.792Z,11.17
2023-04-23T01:06:58.213Z,10.60
2023-04-23T01:09:27.690Z,11.37
2023-04-23T01:11:55.606Z,11.13
2023-04-23T01:14:24.045Z,11.20
2023-04-23T01:16:53.485Z,12.03
2023-04-23T01:19:21.373Z,12.07
2023-04-23T01:21:51.226Z,11.20
2023-04-23T01:24:20.421Z,11.60
2023-04-23T01:26:48.485Z,11.80
2023-04-23T01:29:16.684Z,12.20
2023-04-23T01:31:44.814Z,12.40
2023-04-23T01:34:12.916Z,11.43
2023-04-23T01:36:41.841Z,11.37
2023-04-23T01:39:10.192Z,12.63
2023-04-23T01:41:40.097Z,12.60
2023-04-23T01:44:08.350Z,12.60
2023-04-23T01:46:36.372Z,13.20
2023-04-23T01:49:04.443Z,12.23
2023-04-23T01:51:32.656Z,13.33
2023-04-23T01:54:00.509Z,12.67
2023-04-23T01:56:30.811Z,12.90
2023-04-23T01:59:00.033Z,12.37
2023-04-23T02:01:28.163Z,13.10
2023-04-23T02:03:56.308Z,12.93
2023-04-23T02:06:24.410Z,12.80
2023-04-23T02:08:52.798Z,12.90
2023-04-23T02:11:20.790Z,11.97
2023-04-23T02:13:48.525Z,12.60
2023-04-23T02:16:18.465Z,12.73
2023-04-23T02:18:46.577Z,13.53
2023-04-23T02:21:14.653Z,12.70
2023-04-23T02:23:42.530Z,12.83
2023-04-23T02:26:10.476Z,13.23
2023-04-23T02:28:38.909Z,15.77
2023-04-23T02:31:06.964Z,14.10
2023-04-23T02:33:36.110Z,13.43
2023-04-23T02:36:03.978Z,13.13
2023-04-23T02:38:31.746Z,12.30
2023-04-23T02:40:59.500Z,20.80
2023-04-23T02:43:27.412Z,18.63
2023-04-23T02:45:55.247Z,17.63
2023-04-23T02:48:22.992Z,14.20
2023-04-23T02:50:52.414Z,14.17
2023-04-23T02:53:20.248Z,13.93
2023-04-23T02:55:48.006Z,13.07
2023-04-23T02:58:16.083Z,12.93
2023-04-23T03:00:43.937Z,14.63
2023-04-23T03:03:12.807Z,12.53
2023-04-23T03:05:40.757Z,12.90
2023-04-23T03:08:09.994Z,12.77
2023-04-23T03:10:37.812Z,14.20
2023-04-23T03:13:05.655Z,20.53
2023-04-23T03:15:33.437Z,15.77
2023-04-23T03:18:01.471Z,15.97
2023-04-23T03:20:29.420Z,14.30
2023-04-23T03:22:57.220Z,15.13
2023-04-23T03:25:26.858Z,13.37
2023-04-23T03:27:54.741Z,19.33
2023-04-23T03:30:22.502Z,17.27
2023-04-23T03:32:51.632Z,14.23
2023-04-23T03:35:19.584Z,13.77
2023-04-23T03:37:47.350Z,13.83
2023-04-23T03:40:15.315Z,14.07
2023-04-23T03:42:44.552Z,14.27
2023-04-23T03:45:13.424Z,13.90
2023-04-23T03:47:41.294Z,15.07
2023-04-23T03:50:10.280Z,16.37
2023-04-23T03:52:38.100Z,14.53
2023-04-23T03:55:06.413Z,14.93
2023-04-23T03:57:34.215Z,14.33
2023-04-23T04:00:03.970Z,15.37
2023-04-23T04:02:32.329Z,14.97
2023-04-23T04:05:00.448Z,14.33
2023-04-23T04:07:28.772Z,13.90
2023-04-23T04:09:56.564Z,13.83
2023-04-23T04:12:24.346Z,14.47
2023-04-23T04:14:52.333Z,15.17
2023-04-23T04:17:21.482Z,16.13
2023-04-23T04:19:49.876Z,24.03
2023-04-23T04:22:17.667Z,16.77
2023-04-23T04:24:47.508Z,16.23
2023-04-23T04:27:15.814Z,16.77
2023-04-23T04:29:43.643Z,16.70
2023-04-23T04:32:11.765Z,15.07
2023-04-23T04:34:41.164Z,13.70
2023-04-23T04:37:10.098Z,13.53
2023-04-23T04:39:37.885Z,19.67
2023-04-23T04:42:07.376Z,15.63
2023-04-23T04:44:37.582Z,30.37
2023-04-23T04:47:05.824Z,16.73
2023-04-23T04:49:33.617Z,16.73
2023-04-23T04:52:02.867Z,15.73
2023-04-23T04:54:30.656Z,15.57
2023-04-23T04:56:58.420Z,14.40
2023-04-23T04:59:26.305Z,15.07
2023-04-23T05:01:54.055Z,22.20
2023-04-23T05:04:21.870Z,14.53
2023-04-23T05:06:49.666Z,13.73
2023-04-23T05:09:18.846Z,13.60
2023-04-23T05:11:46.628Z,28.90
2023-04-23T05:14:14.439Z,15.10
2023-04-23T05:16:42.314Z,34.73
2023-04-23T05:19:10.343Z,14.40
2023-04-23T05:21:38.148Z,17.17
2023-04-23T05:24:06.268Z,32.97
2023-04-23T05:26:35.445Z,15.63
2023-04-23T05:29:04.139Z,14.10
2023-04-23T05:31:32.026Z,14.77
2023-04-23T05:33:59.802Z,13.87
2023-04-23T05:36:27.621Z,13.90
2023-04-23T05:38:55.437Z,14.03
2023-04-23T05:41:23.194Z,12.73
2023-04-23T05:43:55.489Z,11.60
2023-04-23T05:46:23.301Z,12.40
2023-04-23T05:48:51.188Z,11.70
2023-04-23T05:51:19.047Z,12.13
2023-04-23T05:53:46.828Z,11.00
2023-04-23T05:56:14.634Z,10.97
2023-04-23T05:58:42.979Z,11.07
2023-04-23T06:01:12.233Z,10.30
2023-04-23T06:03:42.072Z,10.73
2023-04-23T06:06:09.976Z,10.00
2023-04-23T06:08:37.844Z,10.47
2023-04-23T06:11:05.809Z,10.53
2023-04-23T06:13:33.847Z,10.87
2023-04-23T06:16:01.943Z,10.77
2023-04-23T06:18:31.282Z,9.93
2023-04-23T06:21:02.293Z,10.10
2023-04-23T06:23:30.139Z,9.90
2023-04-23T06:25:57.975Z,9.70
2023-04-23T06:28:25.846Z,10.67
2023-04-23T06:30:53.674Z,11.40
2023-04-23T06:33:21.474Z,10.37
2023-04-23T06:35:50.871Z,10.43
2023-04-23T06:38:21.274Z,11.00
2023-04-23T06:40:49.054Z,10.60
2023-04-23T06:43:16.902Z,10.57
2023-04-23T06:45:44.646Z,9.80
2023-04-23T06:48:12.513Z,11.37
2023-04-23T06:50:41.292Z,11.80
2023-04-23T06:53:10.591Z,10.97
2023-04-23T06:55:38.583Z,13.40
2023-04-23T06:58:07.285Z,10.97
2023-04-23T07:00:35.450Z,14.70
2023-04-23T07:03:03.636Z,13.27
2023-04-23T07:05:31.516Z,12.90
2023-04-23T07:07:59.294Z,10.47
2023-04-23T07:10:28.516Z,9.87
2023-04-23T07:12:56.415Z,8.77
2023-04-23T07:15:24.308Z,9.60
2023-04-23T07:17:52.131Z,9.27
2023-04-23T07:20:20.129Z,8.30
2023-04-23T07:22:48.084Z,8.40
2023-04-23T07:25:16.106Z,9.63
2023-04-23T07:27:45.367Z,9.07
2023-04-23T07:30:14.256Z,9.43
2023-04-23T07:32:42.103Z,8.63
2023-04-23T07:35:11.524Z,8.77
2023-04-23T07:37:39.490Z,9.80
2023-04-23T07:40:09.144Z,9.73
2023-04-23T07:42:36.904Z,9.20
2023-04-23T07:45:07.320Z,8.83
2023-04-23T07:47:35.215Z,9.27
2023-04-23T07:50:03.052Z,9.60
2023-04-23T07:52:30.905Z,9.77
2023-04-23T07:54:58.723Z,9.30
2023-04-23T07:57:26.901Z,9.53
2023-04-23T07:59:54.661Z,9.50
2023-04-23T08:02:26.342Z,9.97
2023-04-23T08:04:54.668Z,9.53
2023-04-23T08:07:22.617Z,9.33
2023-04-23T08:09:50.411Z,9.30
2023-04-23T08:12:18.200Z,9.33
2023-04-23T08:14:47.407Z,10.03
2023-04-23T08:17:15.156Z,9.83
2023-04-23T08:19:44.452Z,9.97
2023-04-23T08:22:13.343Z,9.80
2023-04-23T08:24:41.186Z,9.27
2023-04-23T08:27:08.913Z,9.47
2023-04-23T08:29:36.736Z,9.37
2023-04-23T08:32:04.917Z,10.70
2023-04-23T08:34:34.555Z,9.67
2023-04-23T08:37:06.492Z,9.50
2023-04-23T08:39:37.116Z,9.17
2023-04-23T08:42:12.603Z,9.60
2023-04-23T08:44:43.049Z,9.07
2023-04-23T08:47:13.592Z,8.83
2023-04-23T08:49:43.769Z,7.83
2023-04-23T08:52:17.082Z,8.03
2023-04-23T08:54:47.970Z,7.90
2023-04-23T08:57:17.725Z,7.37
2023-04-23T08:59:46.285Z,6.17
2023-04-23T09:02:15.972Z,6.53
2023-04-23T09:04:43.958Z,6.43
2023-04-23T09:07:13.931Z,7.03
2023-04-23T09:09:42.431Z,6.93
2023-04-23T09:12:10.691Z,5.63
2023-04-23T09:14:38.581Z,5.67
2023-04-23T09:17:06.820Z,6.47
2023-04-23T09:19:34.610Z,4.87
2023-04-23T09:22:02.450Z,5.53
2023-04-23T09:24:31.621Z,5.20
2023-04-23T09:27:00.118Z,3.70
2023-04-23T09:29:28.579Z,4.53
2023-04-23T09:31:57.420Z,4.73
2023-04-23T09:34:26.583Z,4.00
2023-04-23T09:36:54.735Z,3.70
2023-04-23T09:39:23.846Z,3.33
2023-04-23T09:41:54.201Z,3.00
2023-04-23T09:44:23.489Z,3.50
2023-04-23T09:46:51.596Z,3.37
2023-04-23T09:49:19.410Z,3.83
2023-04-23T09:51:49.122Z,3.40
2023-04-23T09:54:18.757Z,3.03
2023-04-23T09:56:50.726Z,3.60
2023-04-23T09:59:35.488Z,3.00
2023-04-23T10:02:12.715Z,3.83
2023-04-23T10:04:42.017Z,3.10
2023-04-23T10:09:44.608Z,5.10
2023-04-23T10:12:31.371Z,3.40
2023-04-23T10:15:02.091Z,2.70
2023-04-23T10:17:30.096Z,2.90
2023-04-23T10:19:59.411Z,3.37
2023-04-23T10:22:29.247Z,3.00
2023-04-23T10:24:58.743Z,2.97
2023-04-23T10:27:40.542Z,3.07
2023-04-23T10:30:18.263Z,3.17
2023-04-23T10:32:46.315Z,2.83
2023-04-23T10:35:14.142Z,2.93
2023-04-23T10:37:42.737Z,2.73
2023-04-23T10:40:14.283Z,2.50
2023-04-23T10:42:42.826Z,2.70
2023-04-23T10:45:23.156Z,2.77
2023-04-23T10:47:54.646Z,2.73
2023-04-23T10:50:24.082Z,2.43
2023-04-23T10:52:53.698Z,2.53
2023-04-23T10:55:22.734Z,2.80
2023-04-23T10:58:02.918Z,2.30
2023-04-23T11:00:32.513Z,2.97
2023-04-23T11:03:03.617Z,2.57
2023-04-23T11:05:31.526Z,2.30
2023-04-23T11:10:52.990Z,2.30
2023-04-23T11:13:28.067Z,2.37
2023-04-23T11:16:15.715Z,2.73
2023-04-23T11:19:03.608Z,2.70
2023-04-23T11:22:03.308Z,2.53
2023-04-23T11:24:37.154Z,2.30
2023-04-23T11:27:06.851Z,2.40
2023-04-23T11:29:35.048Z,2.60
2023-04-23T11:32:04.075Z,2.10
2023-04-23T11:34:34.126Z,2.40
2023-04-23T11:37:05.050Z,2.90
2023-04-23T11:39:32.927Z,2.20
2023-04-23T11:42:03.380Z,2.20
2023-04-23T11:44:31.916Z,2.20
2023-04-23T11:47:02.045Z,2.30
2023-04-23T11:49:29.894Z,1.90
2023-04-23T11:52:00.565Z,2.30
2023-04-23T11:54:29.530Z,2.20
2023-04-23T11:56:58.163Z,1.90
2023-04-23T11:59:26.116Z,1.80
2023-04-23T12:01:55.761Z,2.00
2023-04-23T12:04:24.764Z,2.10
2023-04-23T12:06:55.063Z,1.77
2023-04-23T12:09:25.532Z,1.80
2023-04-23T12:11:53.431Z,1.90
2023-04-23T12:14:26.958Z,2.07
2023-04-23T12:16:54.912Z,2.10
2023-04-23T12:19:27.878Z,1.80
2023-04-23T12:21:57.744Z,1.80
2023-04-23T12:24:28.722Z,1.87
2023-04-23T12:26:58.544Z,2.03
2023-04-23T12:29:26.860Z,1.90
2023-04-23T12:31:55.356Z,1.97
2023-04-23T12:34:23.375Z,2.00
2023-04-23T12:36:52.226Z,1.87
2023-04-23T12:39:32.068Z,2.20
2023-04-23T12:42:02.658Z,1.70
2023-04-23T12:44:30.876Z,1.90
2023-04-23T12:47:00.219Z,2.00
2023-04-23T12:49:28.490Z,1.90
2023-04-23T12:52:01.046Z,1.83
2023-04-23T12:54:34.188Z,1.80
2023-04-23T12:57:02.831Z,1.83
2023-04-23T12:59:31.055Z,1.97
2023-04-23T13:02:02.105Z,1.90
2023-04-23T13:04:30.597Z,1.70
2023-04-23T13:06:58.510Z,1.80
2023-04-23T13:09:27.987Z,1.77
2023-04-23T13:11:57.696Z,1.63
2023-04-23T13:14:26.090Z,1.60
2023-04-23T13:16:53.912Z,1.70
2023-04-23T13:19:21.885Z,1.87
2023-04-23T13:21:49.743Z,1.80
2023-04-23T13:24:17.689Z,1.90
2023-04-23T13:26:45.490Z,1.70
2023-04-23T13:29:14.614Z,1.67
2023-04-23T13:31:42.467Z,1.80
2023-04-23T13:34:10.239Z,2.00
2023-04-23T13:36:41.481Z,2.10
2023-04-23T13:39:11.025Z,2.27
2023-04-23T13:41:38.900Z,2.00
2023-04-23T13:44:06.652Z,1.73
2023-04-23T13:46:35.788Z,1.80
2023-04-23T13:49:03.654Z,1.60
2023-04-23T13:51:34.912Z,2.07
2023-04-23T13:54:03.747Z,1.97
2023-04-23T13:56:31.871Z,1.90
2023-04-23T13:59:12.092Z,1.97
2023-04-23T14:01:49.713Z,2.10
2023-04-23T14:04:17.975Z,2.00
2023-04-23T14:06:46.230Z,1.87
2023-04-23T14:09:13.978Z,2.00
2023-04-23T14:11:41.886Z,2.00
2023-04-23T14:14:09.778Z,2.07
2023-04-23T14:16:37.643Z,1.90
2023-04-23T14:19:07.460Z,1.67
2023-04-23T14:21:36.186Z,1.90
2023-04-23T14:24:10.276Z,2.00
2023-04-23T14:26:48.591Z,1.70
2023-04-23T14:29:24.598Z,2.00
2023-04-23T14:31:52.576Z,1.80
2023-04-23T14:34:22.252Z,2.00
2023-04-23T14:36:50.273Z,1.50
2023-04-23T14:39:18.079Z,1.80
2023-04-23T14:41:45.903Z,1.70
2023-04-23T14:44:13.837Z,1.80
2023-04-23T14:46:41.595Z,1.87
2023-04-23T14:49:09.624Z,1.70
2023-04-23T14:51:38.762Z,2.00
2023-04-23T14:54:07.286Z,1.83
2023-04-23T14:56:35.077Z,1.87
2023-04-23T14:59:03.246Z,1.50
2023-04-23T15:01:31.293Z,1.70
2023-04-23T15:03:59.293Z,1.50
2023-04-23T15:06:27.166Z,2.03
2023-04-23T15:08:56.356Z,1.60
2023-04-23T15:11:24.182Z,1.50
2023-04-23T15:13:57.786Z,1.70
2023-04-23T15:16:46.686Z,1.60
2023-04-23T15:19:17.936Z,2.10
2023-04-23T15:21:46.512Z,1.90
2023-04-23T15:24:15.921Z,1.90
2023-04-23T15:26:44.193Z,2.07
2023-04-23T15:29:13.494Z,2.20
2023-04-23T15:31:41.766Z,2.23
2023-04-23T15:34:09.890Z,1.67
2023-04-23T15:36:38.436Z,2.30
2023-04-23T15:39:07.176Z,1.97
2023-04-23T15:41:40.229Z,2.00
2023-04-23T15:44:10.869Z,2.30
2023-04-23T15:46:38.762Z,1.90
2023-04-23T15:49:06.636Z,1.70
2023-04-23T15:51:34.516Z,1.63
2023-04-23T15:54:02.929Z,2.10
2023-04-23T15:56:30.713Z,1.90
2023-04-23T15:58:59.858Z,1.67
2023-04-23T16:01:27.838Z,1.93
2023-04-23T16:04:09.501Z,2.00
2023-04-23T16:06:39.175Z,1.50
2023-04-23T16:09:08.214Z,1.53
2023-04-23T16:11:36.386Z,1.60
2023-04-23T16:14:06.232Z,1.57
2023-04-23T16:16:34.147Z,1.60
2023-04-23T16:19:02.750Z,1.47
2023-04-23T16:21:31.254Z,1.43
2023-04-23T16:23:59.101Z,1.70
2023-04-23T16:26:27.020Z,1.47
2023-04-23T16:29:05.742Z,1.23
2023-04-23T16:31:43.873Z,1.50
2023-04-23T16:34:11.685Z,1.50
2023-04-23T16:36:39.524Z,1.50
2023-04-23T16:39:07.406Z,1.47
2023-04-23T16:41:35.227Z,1.50
2023-04-23T16:44:03.028Z,1.80
2023-04-23T16:46:31.676Z,2.73
2023-04-23T16:49:01.222Z,2.43
2023-04-23T16:51:29.637Z,2.17
2023-04-23T16:53:57.705Z,2.00
2023-04-23T16:56:25.828Z,4.40
2023-04-23T16:58:53.625Z,1.83
2023-04-23T17:01:21.407Z,1.83
2023-04-23T17:03:49.329Z,3.47
2023-04-23T17:06:26.875Z,1.70
2023-04-23T17:08:54.988Z,1.60
2023-04-23T17:11:23.037Z,1.40
2023-04-23T17:13:51.010Z,1.30
2023-04-23T17:16:18.867Z,1.40
2023-04-23T17:18:46.711Z,1.70
2023-04-23T17:21:14.689Z,2.00
2023-04-23T17:23:43.846Z,1.60
2023-04-23T17:26:11.607Z,1.50
2023-04-23T17:28:40.779Z,1.80
2023-04-23T17:31:08.588Z,1.40
2023-04-23T17:33:36.663Z,1.50
2023-04-23T17:36:04.700Z,1.77
2023-04-23T17:38:32.706Z,1.87
2023-04-23T17:41:03.302Z,2.57
2023-04-23T17:43:31.853Z,1.33
2023-04-23T17:45:59.666Z,3.10
2023-04-23T17:48:27.459Z,12.60
2023-04-23T17:50:55.473Z,3.20
2023-04-23T17:53:23.297Z,4.30
2023-04-23T17:55:51.391Z,1.80
2023-04-23T17:58:21.455Z,1.80
2023-04-23T18:00:49.324Z,1.30
2023-04-23T18:03:18.829Z,1.60
2023-04-23T18:05:46.822Z,1.60
2023-04-23T18:08:16.304Z,11.70
2023-04-23T18:10:45.384Z,3.77
2023-04-23T18:13:13.626Z,2.33
2023-04-23T18:15:42.812Z,2.90
2023-04-23T18:18:10.640Z,2.20
2023-04-23T18:20:39.076Z,1.77
2023-04-23T18:23:08.024Z,1.43
2023-04-23T18:25:36.052Z,1.67
2023-04-23T18:28:04.096Z,1.70
2023-04-23T18:30:32.180Z,1.70
2023-04-23T18:33:09.728Z,1.60
2023-04-23T18:35:37.562Z,1.70
2023-04-23T18:38:07.903Z,1.63
2023-04-23T18:40:35.749Z,1.70
2023-04-23T18:43:03.522Z,1.60
2023-04-23T18:45:31.357Z,1.80
2023-04-23T18:48:06.254Z,2.20
2023-04-23T18:50:39.210Z,2.00
2023-04-23T18:53:06.988Z,1.60
2023-04-23T18:55:34.797Z,1.87
2023-04-23T18:58:02.585Z,1.43
2023-04-23T19:00:30.585Z,2.00
2023-04-23T19:02:58.962Z,1.67
2023-04-23T19:05:28.344Z,1.50
2023-04-23T19:07:56.148Z,2.00
2023-04-23T19:10:24.041Z,2.00
2023-04-23T19:12:51.804Z,2.00
2023-04-23T19:15:19.751Z,1.87
2023-04-23T19:17:47.700Z,1.80
2023-04-23T19:20:15.763Z,1.83
2023-04-23T19:22:45.457Z,2.00
2023-04-23T19:25:13.305Z,2.20
2023-04-23T19:27:41.065Z,2.47
2023-04-23T19:30:10.411Z,2.10
2023-04-23T19:32:38.205Z,2.00
2023-04-23T19:35:06.845Z,2.40
2023-04-23T19:37:36.066Z,2.50
2023-04-23T19:40:07.116Z,2.10
2023-04-23T19:42:34.904Z,2.00
2023-04-23T19:45:02.800Z,1.77
2023-04-23T19:47:32.560Z,1.50
2023-04-23T19:50:00.428Z,1.80
2023-04-23T19:52:28.430Z,1.70
2023-04-23T19:54:56.309Z,1.90
2023-04-23T19:57:25.961Z,1.70
2023-04-23T19:59:53.806Z,1.90
2023-04-23T20:02:21.811Z,1.70
2023-04-23T20:04:49.629Z,1.83
2023-04-23T20:07:17.738Z,1.70
2023-04-23T20:09:45.713Z,1.90
2023-04-23T20:12:14.206Z,1.80
2023-04-23T20:14:43.696Z,1.63
2023-04-23T20:17:11.500Z,2.30
2023-04-23T20:19:39.864Z,2.00
2023-04-23T20:22:07.960Z,2.37
2023-04-23T20:24:38.136Z,1.50
2023-04-23T20:27:06.965Z,1.70
2023-04-23T20:29:34.804Z,1.60
2023-04-23T20:32:03.983Z,1.70
2023-04-23T20:34:31.829Z,1.50
2023-04-23T20:37:00.204Z,1.50
2023-04-23T20:39:28.042Z,1.90
2023-04-23T20:41:57.822Z,1.43
2023-04-23T20:44:26.032Z,1.30
2023-04-23T20:46:53.896Z,1.50
2023-04-23T20:49:25.270Z,1.43
2023-04-23T20:51:53.032Z,1.30
2023-04-23T20:54:20.857Z,1.60
2023-04-23T20:56:53.979Z,1.70
2023-04-23T20:59:22.195Z,1.50
2023-04-23T21:01:51.029Z,1.50
2023-04-23T21:04:19.190Z,1.80
2023-04-23T21:06:51.006Z,2.00
2023-04-23T21:09:18.848Z,1.60
2023-04-23T21:11:46.684Z,1.50
2023-04-23T21:14:14.486Z,1.40
2023-04-23T21:16:42.228Z,1.60
2023-04-23T21:19:10.021Z,1.50
2023-04-23T21:21:37.916Z,1.30
2023-04-23T21:24:07.627Z,1.60
2023-04-23T21:26:35.867Z,1.60
2023-04-23T21:29:03.750Z,1.47
2023-04-23T21:31:40.578Z,1.40
2023-04-23T21:34:08.471Z,1.57
2023-04-23T21:36:36.567Z,1.80
2023-04-23T21:39:04.675Z,1.63
2023-04-23T21:41:33.925Z,1.43
2023-04-23T21:44:01.965Z,1.60
2023-04-23T21:46:30.587Z,1.63
2023-04-23T21:48:59.016Z,1.97
2023-04-23T21:51:28.057Z,1.87
2023-04-23T21:53:56.227Z,1.60
2023-04-23T21:56:24.415Z,2.03
2023-04-23T21:58:53.697Z,1.47
2023-04-23T22:01:21.574Z,1.90
2023-04-23T22:03:51.046Z,1.90
2023-04-23T22:06:19.367Z,2.20
2023-04-23T22:08:47.566Z,1.80
2023-04-23T22:11:17.382Z,1.90
2023-04-23T22:13:45.563Z,1.90
2023-04-23T22:16:27.326Z,1.87
2023-04-23T22:18:57.099Z,1.70
2023-04-23T22:21:24.933Z,2.00
2023-04-23T22:23:53.402Z,1.40
2023-04-23T22:26:21.970Z,1.90
2023-04-23T22:28:50.006Z,1.70
2023-04-23T22:31:19.583Z,2.20
2023-04-23T22:33:47.447Z,1.90
2023-04-23T22:36:17.010Z,2.00
2023-04-23T22:38:45.181Z,1.93
2023-04-23T22:41:12.977Z,2.00
2023-04-23T22:43:41.262Z,1.93
2023-04-23T22:46:09.222Z,2.20
2023-04-23T22:48:45.204Z,1.73
2023-04-23T22:51:13.271Z,2.00
2023-04-23T22:53:41.292Z,2.07
2023-04-23T22:56:09.483Z,1.93
2023-04-23T22:58:37.626Z,2.03
2023-04-23T23:01:06.172Z,1.97
2023-04-23T23:03:34.226Z,2.03
2023-04-23T23:06:03.788Z,1.90
2023-04-23T23:08:31.715Z,2.10
2023-04-23T23:11:00.116Z,2.00
2023-04-23T23:13:29.204Z,2.23
2023-04-23T23:16:00.503Z,1.83
2023-04-23T23:18:28.864Z,2.10
2023-04-23T23:20:56.689Z,1.80
2023-04-23T23:23:26.222Z,2.00
2023-04-23T23:25:55.026Z,1.90
2023-04-23T23:28:23.575Z,2.00
2023-04-23T23:30:51.471Z,2.00
2023-04-23T23:33:20.035Z,2.00
2023-04-23T23:35:48.314Z,2.10
2023-04-23T23:38:16.332Z,2.00
2023-04-23T23:40:45.711Z,2.23
2023-04-23T23:43:13.923Z,2.00
2023-04-23T23:45:41.828Z,1.93
2023-04-23T23:48:09.647Z,2.20
2023-04-23T23:50:37.936Z,2.03
2023-04-23T23:53:05.805Z,2.20
2023-04-23T23:55:33.945Z,2.00
2023-04-23T23:58:03.427Z,2.30
